sensor_id;sensor_type;location;lat;lon;timestamp;P1;durP1;ratioP1;P2;durP2;ratioP2
74922;SDS011;64715;44.760;37.678;2023-01-19T00:00:40;10.05;;;3.47;;
74922;SDS011;64715;44.760;37.678;2023-01-19T00:01:41;9.60;;;4.03;;
74922;SDS011;64715;44.760;37.678;2023-01-19T00:02:42;9.75;;;3.83;;
74922;SDS011;64715;44.760;37.678;2023-01-19T00:03:46;10.23;;;3.97;;
74922;SDS011;64715;44.760;37.678;2023-01-19T00:04:47;9.60;;;3.78;;
74922;SDS011;64715;44.760;37.678;2023-01-19T00:05:50;9.45;;;3.88;;
74922;SDS011;64715;44.760;37.678;2023-01-19T00:06:52;9.40;;;3.45;;
74922;SDS011;64715;44.760;37.678;2023-01-19T00:07:52;9.90;;;3.90;;
74922;SDS011;64715;44.760;37.678;2023-01-19T00:08:53;10.55;;;3.78;;
74922;SDS011;64715;44.760;37.678;2023-01-19T00:09:54;8.70;;;3.65;;
74922;SDS011;64715;44.760;37.678;2023-01-19T00:10:58;11.07;;;3.90;;
74922;SDS011;64715;44.760;37.678;2023-01-19T00:11:59;12.40;;;3.47;;
74922;SDS011;64715;44.760;37.678;2023-01-19T00:13:00;10.60;;;3.75;;
74922;SDS011;64715;44.760;37.678;2023-01-19T00:14:01;9.10;;;3.30;;
74922;SDS011;64715;44.760;37.678;2023-01-19T00:15:02;9.33;;;3.80;;
74922;SDS011;64715;44.760;37.678;2023-01-19T00:16:04;9.75;;;3.50;;
74922;SDS011;64715;44.760;37.678;2023-01-19T00:17:06;8.40;;;3.40;;
74922;SDS011;64715;44.760;37.678;2023-01-19T00:18:07;9.38;;;3.20;;
74922;SDS011;64715;44.760;37.678;2023-01-19T00:19:09;8.82;;;3.13;;
74922;SDS011;64715;44.760;37.678;2023-01-19T00:20:10;8.32;;;2.90;;
74922;SDS011;64715;44.760;37.678;2023-01-19T00:21:12;8.10;;;3.15;;
74922;SDS011;64715;44.760;37.678;2023-01-19T00:22:15;9.38;;;3.40;;
74922;SDS011;64715;44.760;37.678;2023-01-19T00:23:16;7.87;;;2.83;;
74922;SDS011;64715;44.760;37.678;2023-01-19T00:24:17;8.50;;;3.10;;
74922;SDS011;64715;44.760;37.678;2023-01-19T00:25:19;8.75;;;3.20;;
74922;SDS011;64715;44.760;37.678;2023-01-19T00:26:20;8.50;;;3.33;;
74922;SDS011;64715;44.760;37.678;2023-01-19T00:27:21;9.70;;;3.50;;
74922;SDS011;64715;44.760;37.678;2023-01-19T00:28:23;11.15;;;3.60;;
74922;SDS011;64715;44.760;37.678;2023-01-19T00:29:24;9.65;;;3.40;;
74922;SDS011;64715;44.760;37.678;2023-01-19T00:30:25;8.40;;;3.40;;
74922;SDS011;64715;44.760;37.678;2023-01-19T00:31:26;11.30;;;3.47;;
74922;SDS011;64715;44.760;37.678;2023-01-19T00:32:33;9.02;;;3.22;;
74922;SDS011;64715;44.760;37.678;2023-01-19T00:33:34;8.60;;;3.40;;
74922;SDS011;64715;44.760;37.678;2023-01-19T00:34:35;9.40;;;3.55;;
74922;SDS011;64715;44.760;37.678;2023-01-19T00:35:38;10.20;;;3.40;;
74922;SDS011;64715;44.760;37.678;2023-01-19T00:36:41;9.52;;;3.50;;
74922;SDS011;64715;44.760;37.678;2023-01-19T00:37:43;9.32;;;3.40;;
74922;SDS011;64715;44.760;37.678;2023-01-19T00:38:45;8.82;;;3.60;;
74922;SDS011;64715;44.760;37.678;2023-01-19T00:39:46;9.30;;;3.33;;
74922;SDS011;64715;44.760;37.678;2023-01-19T00:40:47;9.03;;;3.23;;
74922;SDS011;64715;44.760;37.678;2023-01-19T00:41:48;9.90;;;3.47;;
74922;SDS011;64715;44.760;37.678;2023-01-19T00:43:08;9.07;;;3.42;;
74922;SDS011;64715;44.760;37.678;2023-01-19T00:44:12;9.27;;;3.53;;
74922;SDS011;64715;44.760;37.678;2023-01-19T00:45:14;9.00;;;3.25;;
74922;SDS011;64715;44.760;37.678;2023-01-19T00:46:17;9.98;;;3.35;;
74922;SDS011;64715;44.760;37.678;2023-01-19T00:47:18;8.82;;;3.35;;
74922;SDS011;64715;44.760;37.678;2023-01-19T00:48:19;9.10;;;3.08;;
74922;SDS011;64715;44.760;37.678;2023-01-19T00:49:20;9.43;;;3.10;;
74922;SDS011;64715;44.760;37.678;2023-01-19T00:50:22;10.35;;;3.60;;
74922;SDS011;64715;44.760;37.678;2023-01-19T00:51:24;9.55;;;3.28;;
74922;SDS011;64715;44.760;37.678;2023-01-19T00:52:25;9.15;;;3.38;;
74922;SDS011;64715;44.760;37.678;2023-01-19T00:53:27;9.88;;;3.47;;
74922;SDS011;64715;44.760;37.678;2023-01-19T00:54:31;8.70;;;3.50;;
74922;SDS011;64715;44.760;37.678;2023-01-19T00:55:32;8.70;;;3.25;;
74922;SDS011;64715;44.760;37.678;2023-01-19T00:56:33;8.30;;;3.10;;
74922;SDS011;64715;44.760;37.678;2023-01-19T00:57:35;9.00;;;3.38;;
74922;SDS011;64715;44.760;37.678;2023-01-19T00:58:37;9.10;;;3.27;;
74922;SDS011;64715;44.760;37.678;2023-01-19T00:59:38;9.43;;;3.30;;
74922;SDS011;64715;44.760;37.678;2023-01-19T01:00:39;8.77;;;3.25;;
74922;SDS011;64715;44.760;37.678;2023-01-19T01:01:39;8.73;;;3.20;;
74922;SDS011;64715;44.760;37.678;2023-01-19T01:02:41;8.90;;;3.20;;
74922;SDS011;64715;44.760;37.678;2023-01-19T01:03:43;10.23;;;3.58;;
74922;SDS011;64715;44.760;37.678;2023-01-19T01:04:44;9.87;;;3.10;;
74922;SDS011;64715;44.760;37.678;2023-01-19T01:05:45;9.32;;;3.10;;
74922;SDS011;64715;44.760;37.678;2023-01-19T01:06:46;8.57;;;3.17;;
74922;SDS011;64715;44.760;37.678;2023-01-19T01:07:47;10.48;;;3.17;;
74922;SDS011;64715;44.760;37.678;2023-01-19T01:08:49;8.73;;;3.08;;
74922;SDS011;64715;44.760;37.678;2023-01-19T01:09:50;8.90;;;3.40;;
74922;SDS011;64715;44.760;37.678;2023-01-19T01:10:51;8.93;;;3.07;;
74922;SDS011;64715;44.760;37.678;2023-01-19T01:11:52;8.50;;;3.15;;
74922;SDS011;64715;44.760;37.678;2023-01-19T01:12:53;9.70;;;3.03;;
74922;SDS011;64715;44.760;37.678;2023-01-19T01:13:54;9.52;;;3.42;;
74922;SDS011;64715;44.760;37.678;2023-01-19T01:14:55;9.73;;;3.35;;
74922;SDS011;64715;44.760;37.678;2023-01-19T01:15:56;10.05;;;3.10;;
74922;SDS011;64715;44.760;37.678;2023-01-19T01:16:57;9.15;;;3.60;;
74922;SDS011;64715;44.760;37.678;2023-01-19T01:17:58;8.57;;;2.93;;
74922;SDS011;64715;44.760;37.678;2023-01-19T01:18:59;9.17;;;3.40;;
74922;SDS011;64715;44.760;37.678;2023-01-19T01:20:03;9.23;;;3.50;;
74922;SDS011;64715;44.760;37.678;2023-01-19T01:21:05;10.18;;;3.15;;
74922;SDS011;64715;44.760;37.678;2023-01-19T01:22:07;9.77;;;3.70;;
74922;SDS011;64715;44.760;37.678;2023-01-19T01:23:09;9.23;;;3.38;;
74922;SDS011;64715;44.760;37.678;2023-01-19T01:24:10;8.68;;;3.00;;
74922;SDS011;64715;44.760;37.678;2023-01-19T01:25:12;9.35;;;3.35;;
74922;SDS011;64715;44.760;37.678;2023-01-19T01:26:13;8.30;;;3.00;;
74922;SDS011;64715;44.760;37.678;2023-01-19T01:27:15;12.37;;;3.43;;
74922;SDS011;64715;44.760;37.678;2023-01-19T01:28:16;9.85;;;3.67;;
74922;SDS011;64715;44.760;37.678;2023-01-19T01:29:17;9.25;;;3.40;;
74922;SDS011;64715;44.760;37.678;2023-01-19T01:30:18;10.40;;;3.22;;
74922;SDS011;64715;44.760;37.678;2023-01-19T01:31:20;9.23;;;3.35;;
74922;SDS011;64715;44.760;37.678;2023-01-19T01:32:21;10.18;;;3.67;;
74922;SDS011;64715;44.760;37.678;2023-01-19T01:33:22;11.45;;;3.15;;
74922;SDS011;64715;44.760;37.678;2023-01-19T01:34:23;9.07;;;3.30;;
74922;SDS011;64715;44.760;37.678;2023-01-19T01:35:24;10.07;;;3.30;;
74922;SDS011;64715;44.760;37.678;2023-01-19T01:36:25;8.68;;;3.13;;
74922;SDS011;64715;44.760;37.678;2023-01-19T01:37:28;9.07;;;3.67;;
74922;SDS011;64715;44.760;37.678;2023-01-19T01:38:29;8.98;;;3.40;;
74922;SDS011;64715;44.760;37.678;2023-01-19T01:39:30;10.23;;;3.53;;
74922;SDS011;64715;44.760;37.678;2023-01-19T01:40:31;8.50;;;3.28;;
74922;SDS011;64715;44.760;37.678;2023-01-19T01:41:32;9.18;;;3.22;;
74922;SDS011;64715;44.760;37.678;2023-01-19T01:42:34;8.17;;;3.27;;
74922;SDS011;64715;44.760;37.678;2023-01-19T01:45:54;9.13;;;3.20;;
74922;SDS011;64715;44.760;37.678;2023-01-19T01:46:57;11.35;;;3.40;;
74922;SDS011;64715;44.760;37.678;2023-01-19T01:48:00;9.93;;;3.20;;
74922;SDS011;64715;44.760;37.678;2023-01-19T01:49:10;8.93;;;3.20;;
74922;SDS011;64715;44.760;37.678;2023-01-19T01:50:16;9.15;;;3.15;;
74922;SDS011;64715;44.760;37.678;2023-01-19T01:51:54;9.20;;;3.03;;
74922;SDS011;64715;44.760;37.678;2023-01-19T01:52:51;8.73;;;3.10;;
74922;SDS011;64715;44.760;37.678;2023-01-19T01:54:58;8.38;;;2.70;;
74922;SDS011;64715;44.760;37.678;2023-01-19T01:56:01;8.27;;;3.10;;
74922;SDS011;64715;44.760;37.678;2023-01-19T01:57:05;8.63;;;2.92;;
74922;SDS011;64715;44.760;37.678;2023-01-19T01:58:12;8.52;;;3.22;;
74922;SDS011;64715;44.760;37.678;2023-01-19T02:00:46;9.82;;;3.17;;
74922;SDS011;64715;44.760;37.678;2023-01-19T02:02:11;9.65;;;3.35;;
74922;SDS011;64715;44.760;37.678;2023-01-19T02:03:38;8.97;;;3.00;;
74922;SDS011;64715;44.760;37.678;2023-01-19T02:04:42;8.93;;;3.23;;
74922;SDS011;64715;44.760;37.678;2023-01-19T02:05:46;7.68;;;2.85;;
74922;SDS011;64715;44.760;37.678;2023-01-19T02:06:48;8.65;;;2.95;;
74922;SDS011;64715;44.760;37.678;2023-01-19T02:09:53;9.70;;;2.72;;
74922;SDS011;64715;44.760;37.678;2023-01-19T02:11:14;8.77;;;2.85;;
74922;SDS011;64715;44.760;37.678;2023-01-19T02:12:34;10.60;;;3.00;;
74922;SDS011;64715;44.760;37.678;2023-01-19T02:13:54;9.48;;;3.10;;
74922;SDS011;64715;44.760;37.678;2023-01-19T02:14:55;9.93;;;3.08;;
74922;SDS011;64715;44.760;37.678;2023-01-19T02:15:59;10.90;;;2.77;;
74922;SDS011;64715;44.760;37.678;2023-01-19T02:17:02;8.10;;;2.65;;
74922;SDS011;64715;44.760;37.678;2023-01-19T02:18:05;8.88;;;2.92;;
74922;SDS011;64715;44.760;37.678;2023-01-19T02:19:06;9.15;;;3.10;;
74922;SDS011;64715;44.760;37.678;2023-01-19T02:20:12;8.95;;;3.10;;
74922;SDS011;64715;44.760;37.678;2023-01-19T02:21:26;8.30;;;2.92;;
74922;SDS011;64715;44.760;37.678;2023-01-19T02:22:48;9.45;;;3.10;;
74922;SDS011;64715;44.760;37.678;2023-01-19T02:23:54;8.35;;;3.17;;
74922;SDS011;64715;44.760;37.678;2023-01-19T02:24:56;11.20;;;3.20;;
74922;SDS011;64715;44.760;37.678;2023-01-19T02:25:58;8.90;;;3.03;;
74922;SDS011;64715;44.760;37.678;2023-01-19T02:27:00;8.50;;;2.67;;
74922;SDS011;64715;44.760;37.678;2023-01-19T02:28:02;9.55;;;3.10;;
74922;SDS011;64715;44.760;37.678;2023-01-19T02:29:06;8.93;;;3.00;;
74922;SDS011;64715;44.760;37.678;2023-01-19T02:30:09;9.10;;;3.05;;
74922;SDS011;64715;44.760;37.678;2023-01-19T02:31:11;10.40;;;3.10;;
74922;SDS011;64715;44.760;37.678;2023-01-19T02:32:15;8.20;;;2.90;;
74922;SDS011;64715;44.760;37.678;2023-01-19T02:33:15;8.68;;;3.15;;
74922;SDS011;64715;44.760;37.678;2023-01-19T02:34:17;8.90;;;3.10;;
74922;SDS011;64715;44.760;37.678;2023-01-19T02:35:20;8.97;;;3.17;;
74922;SDS011;64715;44.760;37.678;2023-01-19T02:36:23;9.35;;;3.00;;
74922;SDS011;64715;44.760;37.678;2023-01-19T02:37:28;8.98;;;3.17;;
74922;SDS011;64715;44.760;37.678;2023-01-19T02:38:32;9.88;;;2.97;;
74922;SDS011;64715;44.760;37.678;2023-01-19T02:39:42;8.98;;;3.00;;
74922;SDS011;64715;44.760;37.678;2023-01-19T02:40:45;8.27;;;3.20;;
74922;SDS011;64715;44.760;37.678;2023-01-19T02:41:50;9.75;;;3.33;;
74922;SDS011;64715;44.760;37.678;2023-01-19T02:42:55;8.95;;;3.20;;
74922;SDS011;64715;44.760;37.678;2023-01-19T02:43:59;8.88;;;3.30;;
74922;SDS011;64715;44.760;37.678;2023-01-19T02:45:02;9.33;;;3.10;;
74922;SDS011;64715;44.760;37.678;2023-01-19T02:46:08;10.17;;;3.10;;
74922;SDS011;64715;44.760;37.678;2023-01-19T02:47:09;8.48;;;3.10;;
74922;SDS011;64715;44.760;37.678;2023-01-19T02:48:11;9.60;;;3.05;;
74922;SDS011;64715;44.760;37.678;2023-01-19T02:49:12;8.98;;;3.13;;
74922;SDS011;64715;44.760;37.678;2023-01-19T02:51:38;8.25;;;2.95;;
74922;SDS011;64715;44.760;37.678;2023-01-19T02:52:42;8.97;;;3.00;;
74922;SDS011;64715;44.760;37.678;2023-01-19T03:00:21;8.45;;;3.13;;
74922;SDS011;64715;44.760;37.678;2023-01-19T03:01:45;11.43;;;4.13;;
74922;SDS011;64715;44.760;37.678;2023-01-19T03:08:21;9.63;;;3.40;;
74922;SDS011;64715;44.760;37.678;2023-01-19T03:09:28;11.38;;;3.30;;
74922;SDS011;64715;44.760;37.678;2023-01-19T03:11:53;9.40;;;2.88;;
74922;SDS011;64715;44.760;37.678;2023-01-19T03:14:15;7.50;;;2.90;;
74922;SDS011;64715;44.760;37.678;2023-01-19T03:16:53;8.03;;;2.70;;
74922;SDS011;64715;44.760;37.678;2023-01-19T03:17:58;8.43;;;3.00;;
74922;SDS011;64715;44.760;37.678;2023-01-19T03:19:16;8.93;;;2.90;;
74922;SDS011;64715;44.760;37.678;2023-01-19T03:20:28;8.35;;;2.75;;
74922;SDS011;64715;44.760;37.678;2023-01-19T03:21:29;9.57;;;3.10;;
74922;SDS011;64715;44.760;37.678;2023-01-19T03:22:35;12.10;;;3.40;;
74922;SDS011;64715;44.760;37.678;2023-01-19T03:23:36;11.02;;;3.40;;
74922;SDS011;64715;44.760;37.678;2023-01-19T03:24:41;9.40;;;3.67;;
74922;SDS011;64715;44.760;37.678;2023-01-19T03:25:44;10.73;;;3.78;;
74922;SDS011;64715;44.760;37.678;2023-01-19T03:26:53;11.23;;;3.80;;
74922;SDS011;64715;44.760;37.678;2023-01-19T03:28:01;9.20;;;3.40;;
74922;SDS011;64715;44.760;37.678;2023-01-19T03:29:03;8.68;;;3.40;;
74922;SDS011;64715;44.760;37.678;2023-01-19T03:30:12;8.85;;;3.25;;
74922;SDS011;64715;44.760;37.678;2023-01-19T03:31:25;8.65;;;3.22;;
74922;SDS011;64715;44.760;37.678;2023-01-19T03:32:29;10.98;;;3.70;;
74922;SDS011;64715;44.760;37.678;2023-01-19T03:33:36;9.10;;;3.67;;
74922;SDS011;64715;44.760;37.678;2023-01-19T03:34:39;9.15;;;3.78;;
74922;SDS011;64715;44.760;37.678;2023-01-19T03:35:44;9.77;;;3.83;;
74922;SDS011;64715;44.760;37.678;2023-01-19T03:36:51;9.43;;;3.38;;
74922;SDS011;64715;44.760;37.678;2023-01-19T03:37:53;12.17;;;4.40;;
74922;SDS011;64715;44.760;37.678;2023-01-19T03:38:57;10.20;;;4.20;;
74922;SDS011;64715;44.760;37.678;2023-01-19T03:40:01;11.65;;;4.78;;
74922;SDS011;64715;44.760;37.678;2023-01-19T03:41:06;11.25;;;4.55;;
74922;SDS011;64715;44.760;37.678;2023-01-19T03:42:12;10.68;;;3.92;;
74922;SDS011;64715;44.760;37.678;2023-01-19T03:43:15;12.68;;;3.60;;
74922;SDS011;64715;44.760;37.678;2023-01-19T03:44:17;9.20;;;3.42;;
74922;SDS011;64715;44.760;37.678;2023-01-19T03:45:18;10.02;;;4.10;;
74922;SDS011;64715;44.760;37.678;2023-01-19T03:46:22;9.13;;;3.50;;
74922;SDS011;64715;44.760;37.678;2023-01-19T03:47:25;9.67;;;3.20;;
74922;SDS011;64715;44.760;37.678;2023-01-19T03:48:26;8.63;;;3.53;;
74922;SDS011;64715;44.760;37.678;2023-01-19T03:49:29;9.82;;;3.85;;
74922;SDS011;64715;44.760;37.678;2023-01-19T03:50:30;10.43;;;3.80;;
74922;SDS011;64715;44.760;37.678;2023-01-19T03:51:34;9.82;;;3.88;;
74922;SDS011;64715;44.760;37.678;2023-01-19T03:52:36;11.25;;;4.15;;
74922;SDS011;64715;44.760;37.678;2023-01-19T03:53:37;10.77;;;3.80;;
74922;SDS011;64715;44.760;37.678;2023-01-19T03:54:38;9.05;;;3.90;;
74922;SDS011;64715;44.760;37.678;2023-01-19T03:55:43;10.33;;;4.00;;
74922;SDS011;64715;44.760;37.678;2023-01-19T03:56:48;13.85;;;4.80;;
74922;SDS011;64715;44.760;37.678;2023-01-19T03:57:48;12.35;;;4.70;;
74922;SDS011;64715;44.760;37.678;2023-01-19T03:58:50;11.02;;;4.50;;
74922;SDS011;64715;44.760;37.678;2023-01-19T03:59:51;10.95;;;4.35;;
74922;SDS011;64715;44.760;37.678;2023-01-19T04:00:52;12.77;;;4.88;;
74922;SDS011;64715;44.760;37.678;2023-01-19T04:01:53;12.15;;;4.63;;
74922;SDS011;64715;44.760;37.678;2023-01-19T04:02:54;12.60;;;4.73;;
74922;SDS011;64715;44.760;37.678;2023-01-19T04:03:55;11.45;;;4.60;;
74922;SDS011;64715;44.760;37.678;2023-01-19T04:04:57;11.65;;;4.72;;
74922;SDS011;64715;44.760;37.678;2023-01-19T04:05:57;11.38;;;4.65;;
74922;SDS011;64715;44.760;37.678;2023-01-19T04:06:59;13.00;;;5.60;;
74922;SDS011;64715;44.760;37.678;2023-01-19T04:08:00;12.18;;;5.00;;
74922;SDS011;64715;44.760;37.678;2023-01-19T04:09:01;11.63;;;5.07;;
74922;SDS011;64715;44.760;37.678;2023-01-19T04:10:02;11.50;;;4.77;;
74922;SDS011;64715;44.760;37.678;2023-01-19T04:11:04;11.23;;;4.90;;
74922;SDS011;64715;44.760;37.678;2023-01-19T04:12:05;12.30;;;5.20;;
74922;SDS011;64715;44.760;37.678;2023-01-19T04:13:06;12.85;;;5.25;;
74922;SDS011;64715;44.760;37.678;2023-01-19T04:14:07;12.77;;;5.45;;
74922;SDS011;64715;44.760;37.678;2023-01-19T04:15:09;12.60;;;5.60;;
74922;SDS011;64715;44.760;37.678;2023-01-19T04:16:11;13.50;;;6.20;;
74922;SDS011;64715;44.760;37.678;2023-01-19T04:17:12;12.45;;;5.90;;
74922;SDS011;64715;44.760;37.678;2023-01-19T04:18:13;12.47;;;5.53;;
74922;SDS011;64715;44.760;37.678;2023-01-19T04:19:14;11.90;;;5.50;;
74922;SDS011;64715;44.760;37.678;2023-01-19T04:20:15;15.40;;;5.72;;
74922;SDS011;64715;44.760;37.678;2023-01-19T04:21:17;14.32;;;5.85;;
74922;SDS011;64715;44.760;37.678;2023-01-19T04:22:19;13.02;;;5.65;;
74922;SDS011;64715;44.760;37.678;2023-01-19T04:23:20;14.10;;;6.07;;
74922;SDS011;64715;44.760;37.678;2023-01-19T04:24:23;13.53;;;5.90;;
74922;SDS011;64715;44.760;37.678;2023-01-19T04:25:24;15.13;;;6.43;;
74922;SDS011;64715;44.760;37.678;2023-01-19T04:26:26;14.32;;;5.95;;
74922;SDS011;64715;44.760;37.678;2023-01-19T04:27:31;13.68;;;6.03;;
74922;SDS011;64715;44.760;37.678;2023-01-19T04:28:32;13.50;;;6.00;;
74922;SDS011;64715;44.760;37.678;2023-01-19T04:29:34;13.38;;;5.30;;
74922;SDS011;64715;44.760;37.678;2023-01-19T04:30:35;11.68;;;4.93;;
74922;SDS011;64715;44.760;37.678;2023-01-19T04:31:36;12.65;;;5.35;;
74922;SDS011;64715;44.760;37.678;2023-01-19T04:32:37;13.80;;;6.00;;
74922;SDS011;64715;44.760;37.678;2023-01-19T04:33:41;17.27;;;6.28;;
74922;SDS011;64715;44.760;37.678;2023-01-19T04:34:42;16.02;;;7.05;;
74922;SDS011;64715;44.760;37.678;2023-01-19T04:35:44;14.82;;;6.40;;
74922;SDS011;64715;44.760;37.678;2023-01-19T04:36:45;13.55;;;6.20;;
74922;SDS011;64715;44.760;37.678;2023-01-19T04:37:50;14.23;;;6.18;;
74922;SDS011;64715;44.760;37.678;2023-01-19T04:38:51;12.73;;;6.18;;
74922;SDS011;64715;44.760;37.678;2023-01-19T04:39:53;14.90;;;6.60;;
74922;SDS011;64715;44.760;37.678;2023-01-19T04:40:54;14.37;;;6.20;;
74922;SDS011;64715;44.760;37.678;2023-01-19T04:41:55;16.45;;;6.35;;
74922;SDS011;64715;44.760;37.678;2023-01-19T04:42:57;15.10;;;6.22;;
74922;SDS011;64715;44.760;37.678;2023-01-19T04:43:58;16.08;;;6.13;;
74922;SDS011;64715;44.760;37.678;2023-01-19T04:44:59;15.48;;;6.22;;
74922;SDS011;64715;44.760;37.678;2023-01-19T04:46:00;15.98;;;6.93;;
74922;SDS011;64715;44.760;37.678;2023-01-19T04:47:01;17.65;;;7.10;;
74922;SDS011;64715;44.760;37.678;2023-01-19T04:48:02;16.30;;;6.70;;
74922;SDS011;64715;44.760;37.678;2023-01-19T04:49:05;19.42;;;7.35;;
74922;SDS011;64715;44.760;37.678;2023-01-19T04:50:06;20.40;;;7.95;;
74922;SDS011;64715;44.760;37.678;2023-01-19T04:51:09;14.88;;;6.82;;
74922;SDS011;64715;44.760;37.678;2023-01-19T04:52:10;16.23;;;6.55;;
74922;SDS011;64715;44.760;37.678;2023-01-19T04:53:11;15.85;;;6.68;;
74922;SDS011;64715;44.760;37.678;2023-01-19T04:54:13;15.52;;;6.85;;
74922;SDS011;64715;44.760;37.678;2023-01-19T04:55:14;19.10;;;6.87;;
74922;SDS011;64715;44.760;37.678;2023-01-19T04:56:15;19.77;;;7.60;;
74922;SDS011;64715;44.760;37.678;2023-01-19T04:57:16;17.77;;;6.45;;
74922;SDS011;64715;44.760;37.678;2023-01-19T04:58:17;13.93;;;5.90;;
74922;SDS011;64715;44.760;37.678;2023-01-19T04:59:18;13.63;;;5.63;;
74922;SDS011;64715;44.760;37.678;2023-01-19T05:00:20;15.23;;;5.50;;
74922;SDS011;64715;44.760;37.678;2023-01-19T05:01:22;14.55;;;5.70;;
74922;SDS011;64715;44.760;37.678;2023-01-19T05:02:23;12.25;;;5.35;;
74922;SDS011;64715;44.760;37.678;2023-01-19T05:03:24;12.00;;;5.47;;
74922;SDS011;64715;44.760;37.678;2023-01-19T05:04:26;14.65;;;5.47;;
74922;SDS011;64715;44.760;37.678;2023-01-19T05:05:27;13.60;;;5.35;;
74922;SDS011;64715;44.760;37.678;2023-01-19T05:06:28;13.82;;;5.88;;
74922;SDS011;64715;44.760;37.678;2023-01-19T05:07:29;13.68;;;5.65;;
74922;SDS011;64715;44.760;37.678;2023-01-19T05:08:30;12.20;;;5.20;;
74922;SDS011;64715;44.760;37.678;2023-01-19T05:09:31;14.68;;;5.90;;
74922;SDS011;64715;44.760;37.678;2023-01-19T05:10:35;12.15;;;5.30;;
74922;SDS011;64715;44.760;37.678;2023-01-19T05:11:36;11.60;;;5.28;;
74922;SDS011;64715;44.760;37.678;2023-01-19T05:12:37;12.93;;;5.35;;
74922;SDS011;64715;44.760;37.678;2023-01-19T05:13:38;14.00;;;5.87;;
74922;SDS011;64715;44.760;37.678;2023-01-19T05:14:39;14.33;;;5.80;;
74922;SDS011;64715;44.760;37.678;2023-01-19T05:15:40;14.02;;;6.22;;
74922;SDS011;64715;44.760;37.678;2023-01-19T05:16:41;15.00;;;7.28;;
74922;SDS011;64715;44.760;37.678;2023-01-19T05:17:42;16.27;;;6.63;;
74922;SDS011;64715;44.760;37.678;2023-01-19T05:18:45;13.63;;;6.07;;
74922;SDS011;64715;44.760;37.678;2023-01-19T05:19:46;14.48;;;6.05;;
74922;SDS011;64715;44.760;37.678;2023-01-19T05:20:48;12.25;;;5.40;;
74922;SDS011;64715;44.760;37.678;2023-01-19T05:21:49;12.40;;;5.40;;
74922;SDS011;64715;44.760;37.678;2023-01-19T05:22:50;12.70;;;5.45;;
74922;SDS011;64715;44.760;37.678;2023-01-19T05:23:52;13.45;;;6.07;;
74922;SDS011;64715;44.760;37.678;2023-01-19T05:24:53;18.20;;;5.38;;
74922;SDS011;64715;44.760;37.678;2023-01-19T05:25:54;13.15;;;5.43;;
74922;SDS011;64715;44.760;37.678;2023-01-19T05:26:56;11.13;;;5.13;;
74922;SDS011;64715;44.760;37.678;2023-01-19T05:27:57;12.70;;;5.50;;
74922;SDS011;64715;44.760;37.678;2023-01-19T05:28:58;12.48;;;5.57;;
74922;SDS011;64715;44.760;37.678;2023-01-19T05:29:59;11.60;;;5.00;;
74922;SDS011;64715;44.760;37.678;2023-01-19T05:31:00;13.18;;;5.10;;
74922;SDS011;64715;44.760;37.678;2023-01-19T05:32:01;12.93;;;5.38;;
74922;SDS011;64715;44.760;37.678;2023-01-19T05:33:02;15.90;;;5.78;;
74922;SDS011;64715;44.760;37.678;2023-01-19T05:34:04;13.57;;;5.70;;
74922;SDS011;64715;44.760;37.678;2023-01-19T05:35:05;16.07;;;5.90;;
74922;SDS011;64715;44.760;37.678;2023-01-19T05:36:06;15.53;;;6.70;;
74922;SDS011;64715;44.760;37.678;2023-01-19T05:37:07;35.90;;;19.00;;
74922;SDS011;64715;44.760;37.678;2023-01-19T05:38:08;23.58;;;10.82;;
74922;SDS011;64715;44.760;37.678;2023-01-19T05:39:09;14.13;;;5.85;;
74922;SDS011;64715;44.760;37.678;2023-01-19T05:40:10;12.68;;;5.93;;
74922;SDS011;64715;44.760;37.678;2023-01-19T05:41:12;21.67;;;6.10;;
74922;SDS011;64715;44.760;37.678;2023-01-19T05:42:13;18.20;;;7.20;;
74922;SDS011;64715;44.760;37.678;2023-01-19T05:43:14;13.90;;;5.70;;
74922;SDS011;64715;44.760;37.678;2023-01-19T05:44:15;13.57;;;5.20;;
74922;SDS011;64715;44.760;37.678;2023-01-19T05:45:16;15.77;;;5.82;;
74922;SDS011;64715;44.760;37.678;2023-01-19T05:46:17;13.68;;;5.50;;
74922;SDS011;64715;44.760;37.678;2023-01-19T05:47:18;11.75;;;5.20;;
74922;SDS011;64715;44.760;37.678;2023-01-19T05:48:19;12.10;;;5.80;;
74922;SDS011;64715;44.760;37.678;2023-01-19T05:49:20;14.30;;;5.82;;
74922;SDS011;64715;44.760;37.678;2023-01-19T05:50:22;14.50;;;5.50;;
74922;SDS011;64715;44.760;37.678;2023-01-19T05:51:22;13.82;;;5.60;;
74922;SDS011;64715;44.760;37.678;2023-01-19T05:52:23;12.93;;;5.25;;
74922;SDS011;64715;44.760;37.678;2023-01-19T05:53:24;14.98;;;5.95;;
74922;SDS011;64715;44.760;37.678;2023-01-19T05:54:28;15.07;;;5.82;;
74922;SDS011;64715;44.760;37.678;2023-01-19T05:55:29;14.80;;;5.50;;
74922;SDS011;64715;44.760;37.678;2023-01-19T05:56:30;13.07;;;5.68;;
74922;SDS011;64715;44.760;37.678;2023-01-19T05:57:34;12.35;;;5.30;;
74922;SDS011;64715;44.760;37.678;2023-01-19T05:58:36;13.80;;;5.67;;
74922;SDS011;64715;44.760;37.678;2023-01-19T05:59:41;13.13;;;5.30;;
74922;SDS011;64715;44.760;37.678;2023-01-19T06:00:42;13.38;;;5.43;;
74922;SDS011;64715;44.760;37.678;2023-01-19T06:01:43;14.00;;;5.38;;
74922;SDS011;64715;44.760;37.678;2023-01-19T06:02:44;16.40;;;5.28;;
74922;SDS011;64715;44.760;37.678;2023-01-19T06:03:47;12.68;;;5.80;;
74922;SDS011;64715;44.760;37.678;2023-01-19T06:04:48;12.57;;;5.55;;
74922;SDS011;64715;44.760;37.678;2023-01-19T06:05:51;22.67;;;6.70;;
74922;SDS011;64715;44.760;37.678;2023-01-19T06:06:52;13.27;;;5.73;;
74922;SDS011;64715;44.760;37.678;2023-01-19T06:07:55;13.18;;;5.60;;
74922;SDS011;64715;44.760;37.678;2023-01-19T06:08:56;34.92;;;9.57;;
74922;SDS011;64715;44.760;37.678;2023-01-19T06:09:57;16.17;;;6.32;;
74922;SDS011;64715;44.760;37.678;2023-01-19T06:10:58;12.85;;;5.40;;
74922;SDS011;64715;44.760;37.678;2023-01-19T06:11:59;12.73;;;5.43;;
74922;SDS011;64715;44.760;37.678;2023-01-19T06:13:00;18.88;;;6.05;;
74922;SDS011;64715;44.760;37.678;2023-01-19T06:14:01;14.47;;;6.00;;
74922;SDS011;64715;44.760;37.678;2023-01-19T06:15:02;12.73;;;5.97;;
74922;SDS011;64715;44.760;37.678;2023-01-19T06:16:04;19.38;;;6.13;;
74922;SDS011;64715;44.760;37.678;2023-01-19T06:17:05;13.20;;;5.82;;
74922;SDS011;64715;44.760;37.678;2023-01-19T06:18:07;12.60;;;5.90;;
74922;SDS011;64715;44.760;37.678;2023-01-19T06:19:08;30.88;;;7.75;;
74922;SDS011;64715;44.760;37.678;2023-01-19T06:20:09;47.17;;;11.40;;
74922;SDS011;64715;44.760;37.678;2023-01-19T06:21:12;62.33;;;14.32;;
74922;SDS011;64715;44.760;37.678;2023-01-19T06:22:13;31.42;;;9.75;;
74922;SDS011;64715;44.760;37.678;2023-01-19T06:23:14;16.47;;;6.13;;
74922;SDS011;64715;44.760;37.678;2023-01-19T06:24:15;11.07;;;5.28;;
74922;SDS011;64715;44.760;37.678;2023-01-19T06:25:16;15.43;;;6.20;;
74922;SDS011;64715;44.760;37.678;2023-01-19T06:26:17;14.25;;;5.60;;
74922;SDS011;64715;44.760;37.678;2023-01-19T06:27:18;11.32;;;5.45;;
74922;SDS011;64715;44.760;37.678;2023-01-19T06:28:21;13.60;;;5.82;;
74922;SDS011;64715;44.760;37.678;2023-01-19T06:29:23;13.25;;;5.63;;
74922;SDS011;64715;44.760;37.678;2023-01-19T06:30:24;13.68;;;5.43;;
74922;SDS011;64715;44.760;37.678;2023-01-19T06:31:26;12.30;;;5.60;;
74922;SDS011;64715;44.760;37.678;2023-01-19T06:32:27;14.32;;;5.72;;
74922;SDS011;64715;44.760;37.678;2023-01-19T06:33:28;17.13;;;5.97;;